^^
Datos históricos de la estación: Murcia-Puente Tocinos
Diario Informe para Enero 6, 2019 Unidades:  Métrico    Inglés   Ambas
Diario Semanal Mensual Anual Configurable
  Máximo: Mínimo: Media:
Temperatura: 18.3 °C 8.1 °C 12 °C
Punto de rocio: 5.6 °C -4.2 °C -1.4 °C
Humedad: 82% 23% 42%
Velocidad viento: 17.2km/h 0.0km/h 7.7km/h
Racha viento: 24.1km/h - -
Viento- - SSW
Presión: 1028.1 hPa 1025.0 hPa -
Precipitación: 0.0 mm    
Historical Graphs
 
 
Tabla de datos para Enero 6, 2019
Hora Temperatura Punto de rocio Presión Viento Velocidad viento Racha viento Humedad Intensidad lluvia(por hora) Nubes
00:00 8.4 °C 5.6 °C 1028.0 hPa South 9.7 km/h 19.3 km/h 82% 0.0 mm CLR
00:05 8.3 °C 5.4 °C 1027.8 hPa SSW 9.5 km/h 18.5 km/h 82% 0.0 mm CLR
00:10 8.2 °C 5.3 °C 1027.8 hPa SSW 12.2 km/h 20.9 km/h 82% 0.0 mm CLR
00:15 8.3 °C 5.2 °C 1027.8 hPa SSW 12.2 km/h 14.8 km/h 81% 0.0 mm CLR
00:20 8.3 °C 4.9 °C 1027.7 hPa WSW 11.1 km/h 13.0 km/h 79% 0.0 mm CLR
00:25 8.4 °C 4.6 °C 1027.7 hPa SSW 11.1 km/h 14.8 km/h 77% 0.0 mm CLR
00:30 8.5 °C 4.5 °C 1027.7 hPa SSW 9.5 km/h 16.7 km/h 76% 0.0 mm CLR
00:35 8.5 °C 4.5 °C 1027.6 hPa SSW 9.5 km/h 17.2 km/h 76% 0.0 mm CLR
00:40 8.6 °C 4.4 °C 1027.6 hPa SSW 11.1 km/h 13.0 km/h 75% 0.0 mm CLR
00:45 8.6 °C 4.2 °C 1027.6 hPa SSW 11.1 km/h 13.0 km/h 74% 0.0 mm CLR
00:50 8.7 °C 4.1 °C 1027.4 hPa South 10.0 km/h 13.0 km/h 73% 0.0 mm CLR
00:55 8.6 °C 4.1 °C 1027.4 hPa SSW 10.0 km/h 14.8 km/h 73% 0.0 mm CLR
01:00 8.4 °C 4.1 °C 1027.4 hPa SSW 11.3 km/h 16.1 km/h 74% 0.0 mm CLR
01:04 8.2 °C 3.8 °C 1027.4 hPa SSW 10.3 km/h 11.1 km/h 74% 0.0 mm CLR
01:09 8.2 °C 3.8 °C 1027.4 hPa SSW 8.7 km/h 14.8 km/h 74% 0.0 mm CLR
01:14 8.2 °C 3.8 °C 1027.4 hPa SSW 8.7 km/h 13.7 km/h 74% 0.0 mm CLR
01:19 8.3 °C 3.7 °C 1027.4 hPa SSW 10.0 km/h 13.0 km/h 73% 0.0 mm CLR
01:24 8.4 °C 3.7 °C 1027.4 hPa South 10.0 km/h 13.0 km/h 72% 0.0 mm CLR
01:29 8.6 °C 3.6 °C 1027.4 hPa SSW 9.5 km/h 13.0 km/h 71% 0.0 mm CLR
01:34 8.7 °C 3.3 °C 1027.3 hPa South 9.5 km/h 14.8 km/h 69% 0.0 mm CLR
01:39 8.6 °C 3.2 °C 1027.3 hPa South 10.3 km/h 10.0 km/h 69% 0.0 mm CLR
01:44 8.4 °C 3.2 °C 1027.3 hPa SSW 10.3 km/h 9.3 km/h 70% 0.0 mm CLR
01:49 8.4 °C 3.2 °C 1027.4 hPa South 7.6 km/h 13.0 km/h 70% 0.0 mm CLR
01:54 8.4 °C 3.1 °C 1027.4 hPa South 7.6 km/h 14.8 km/h 69% 0.0 mm CLR
01:59 8.4 °C 2.8 °C 1027.4 hPa South 11.9 km/h 16.7 km/h 68% 0.0 mm CLR
02:04 8.3 °C 2.5 °C 1027.4 hPa SSW 11.9 km/h 18.5 km/h 67% 0.0 mm CLR
02:09 8.2 °C 2.2 °C 1027.4 hPa South 13.0 km/h 18.5 km/h 66% 0.0 mm CLR
02:14 8.1 °C 1.9 °C 1027.4 hPa South 13.0 km/h 22.2 km/h 65% 0.0 mm CLR
02:19 8.1 °C 1.7 °C 1027.3 hPa SSE 14.8 km/h 14.8 km/h 64% 0.0 mm CLR
02:24 8.1 °C 1.7 °C 1027.3 hPa SSW 14.8 km/h 11.1 km/h 64% 0.0 mm CLR
02:29 8.3 °C 1.4 °C 1027.3 hPa NW 10.0 km/h 11.1 km/h 62% 0.0 mm CLR
02:34 8.4 °C 1.1 °C 1027.4 hPa SSW 10.0 km/h 11.1 km/h 60% 0.0 mm CLR
02:39 8.9 °C 0.1 °C 1027.4 hPa SSW 8.4 km/h 14.8 km/h 54% 0.0 mm CLR
02:44 10.0 °C -0.5 °C 1027.4 hPa SW 8.4 km/h 20.4 km/h 48% 0.0 mm CLR
02:49 10.8 °C -1.0 °C 1027.5 hPa SW 11.9 km/h 18.5 km/h 44% 0.0 mm CLR
02:54 11.2 °C -1.3 °C 1027.5 hPa SSW 11.9 km/h 17.2 km/h 42% 0.0 mm CLR
02:59 11.3 °C -1.2 °C 1027.5 hPa SW 12.2 km/h 18.5 km/h 42% 0.0 mm CLR
03:04 11.2 °C -1.6 °C 1027.7 hPa SSW 12.2 km/h 22.2 km/h 41% 0.0 mm CLR
03:09 11.2 °C -1.6 °C 1027.7 hPa SW 13.7 km/h 20.4 km/h 41% 0.0 mm CLR
03:14 11.1 °C -1.7 °C 1027.7 hPa SSW 13.7 km/h 18.5 km/h 41% 0.0 mm CLR
03:19 11.0 °C -1.8 °C 1027.6 hPa SSW 14.8 km/h 14.8 km/h 41% 0.0 mm CLR
03:24 11.0 °C -1.8 °C 1027.6 hPa SSW 14.8 km/h 20.4 km/h 41% 0.0 mm CLR
03:29 10.9 °C -1.8 °C 1027.6 hPa SSW 14.0 km/h 18.5 km/h 41% 0.0 mm CLR
03:34 10.8 °C -1.6 °C 1027.4 hPa SW 14.0 km/h 20.9 km/h 42% 0.0 mm CLR
03:39 10.6 °C -1.5 °C 1027.4 hPa SW 14.8 km/h 20.4 km/h 43% 0.0 mm CLR
03:44 10.2 °C -1.6 °C 1027.4 hPa SW 14.8 km/h 18.5 km/h 44% 0.0 mm CLR
03:49 9.8 °C -1.6 °C 1027.1 hPa SW 14.8 km/h 22.2 km/h 45% 0.0 mm CLR
03:54 9.9 °C -1.8 °C 1027.1 hPa SW 14.8 km/h 24.1 km/h 44% 0.0 mm CLR
03:59 10.2 °C -1.6 °C 1027.1 hPa SW 17.2 km/h 20.4 km/h 44% 0.0 mm CLR
04:04 10.1 °C -1.3 °C 1026.9 hPa SW 17.2 km/h 15.6 km/h 45% 0.0 mm CLR
04:09 9.9 °C -1.5 °C 1026.9 hPa SSW 12.2 km/h 20.4 km/h 45% 0.0 mm CLR
04:14 9.8 °C -1.3 °C 1026.9 hPa SSW 12.2 km/h 20.4 km/h 46% 0.0 mm CLR
04:19 9.6 °C -1.2 °C 1026.9 hPa SSW 14.8 km/h 16.7 km/h 47% 0.0 mm CLR
04:24 9.3 °C -1.2 °C 1026.9 hPa SW 14.8 km/h 18.5 km/h 48% 0.0 mm CLR
04:29 9.3 °C -1.2 °C 1026.9 hPa SSW 14.8 km/h 18.5 km/h 48% 0.0 mm CLR
04:34 9.2 °C -1.3 °C 1026.8 hPa SSW 14.8 km/h 17.2 km/h 48% 0.0 mm CLR
04:39 9.1 °C -1.3 °C 1026.8 hPa SSW 13.0 km/h 16.7 km/h 48% 0.0 mm CLR
04:44 8.9 °C -1.3 °C 1026.8 hPa SSW 13.0 km/h 11.9 km/h 49% 0.0 mm CLR
04:49 8.7 °C -0.9 °C 1026.6 hPa SSW 11.1 km/h 16.7 km/h 51% 0.0 mm CLR
04:54 8.3 °C -0.7 °C 1026.6 hPa SSW 11.1 km/h 14.0 km/h 53% 0.0 mm CLR
04:59 8.2 °C -1.1 °C 1026.6 hPa South 11.1 km/h 16.7 km/h 52% 0.0 mm CLR
05:04 8.3 °C -1.3 °C 1026.4 hPa SSW 11.1 km/h 14.0 km/h 51% 0.0 mm CLR
05:09 8.7 °C -1.4 °C 1026.4 hPa SW 10.3 km/h 14.8 km/h 49% 0.0 mm CLR
05:14 8.9 °C -1.8 °C 1026.4 hPa SW 10.3 km/h 11.1 km/h 47% 0.0 mm CLR
05:19 9.1 °C -1.6 °C 1026.4 hPa SSW 10.0 km/h 13.0 km/h 47% 0.0 mm CLR
05:24 9.0 °C -2.0 °C 1026.4 hPa WSW 10.0 km/h 16.7 km/h 46% 0.0 mm CLR
05:29 9.2 °C -2.1 °C 1026.4 hPa SSW 10.0 km/h 16.7 km/h 45% 0.0 mm CLR
05:34 9.4 °C -2.3 °C 1026.3 hPa South 10.0 km/h 18.5 km/h 44% 0.0 mm CLR
05:39 9.6 °C -2.4 °C 1026.3 hPa South 11.1 km/h 17.2 km/h 43% 0.0 mm CLR
05:44 9.6 °C -2.4 °C 1026.3 hPa SW 11.1 km/h 16.7 km/h 43% 0.0 mm CLR
05:49 9.6 °C -2.7 °C 1026.3 hPa South 13.0 km/h 22.5 km/h 42% 0.0 mm CLR
05:54 9.7 °C -2.9 °C 1026.3 hPa South 13.0 km/h 20.4 km/h 41% 0.0 mm CLR
05:59 9.7 °C -2.9 °C 1026.3 hPa SSW 13.7 km/h 13.0 km/h 41% 0.0 mm CLR
06:04 9.7 °C -2.9 °C 1026.2 hPa SSW 13.7 km/h 20.4 km/h 41% 0.0 mm CLR
06:09 9.6 °C -3.1 °C 1026.2 hPa SSW 11.1 km/h 16.7 km/h 41% 0.0 mm CLR
06:14 9.8 °C -3.2 °C 1026.2 hPa SSW 11.1 km/h 20.4 km/h 40% 0.0 mm CLR
06:19 9.8 °C -3.2 °C 1026.2 hPa SSW 11.9 km/h 14.8 km/h 40% 0.0 mm CLR
06:24 9.8 °C -3.2 °C 1026.2 hPa SSW 11.9 km/h 16.7 km/h 40% 0.0 mm CLR
06:29 9.6 °C -3.1 °C 1026.2 hPa SSW 10.0 km/h 13.0 km/h 41% 0.0 mm CLR
06:34 9.3 °C -3.3 °C 1026.3 hPa SSW 10.0 km/h 18.5 km/h 41% 0.0 mm CLR
06:39 9.2 °C -3.4 °C 1026.3 hPa SSW 10.3 km/h 14.8 km/h 41% 0.0 mm CLR
06:44 9.3 °C -3.3 °C 1026.3 hPa SSW 10.3 km/h 15.6 km/h 41% 0.0 mm CLR
06:49 9.6 °C -3.3 °C 1026.3 hPa SSW 10.3 km/h 18.5 km/h 40% 0.0 mm CLR
06:54 9.7 °C -3.6 °C 1026.3 hPa SW 10.3 km/h 18.5 km/h 39% 0.0 mm CLR
06:59 9.7 °C -3.6 °C 1026.3 hPa SSW 13.0 km/h 14.8 km/h 39% 0.0 mm CLR
07:04 9.8 °C -3.5 °C 1026.3 hPa SW 13.0 km/h 18.5 km/h 39% 0.0 mm CLR
07:09 9.8 °C -3.5 °C 1026.3 hPa SSW 12.2 km/h 18.5 km/h 39% 0.0 mm CLR
07:14 9.8 °C -3.5 °C 1026.3 hPa South 12.2 km/h 18.5 km/h 39% 0.0 mm CLR
07:19 9.6 °C -3.3 °C 1026.5 hPa SSE 10.0 km/h 13.0 km/h 40% 0.0 mm CLR
07:24 9.2 °C -3.4 °C 1026.5 hPa SSW 10.0 km/h 14.8 km/h 41% 0.0 mm CLR
07:29 8.9 °C -3.7 °C 1026.5 hPa SSW 11.1 km/h 16.7 km/h 41% 0.0 mm CLR
07:34 8.9 °C -3.3 °C 1026.5 hPa South 11.1 km/h 14.8 km/h 42% 0.0 mm CLR
07:39 8.8 °C -3.4 °C 1026.5 hPa SSW 10.3 km/h 13.0 km/h 42% 0.0 mm CLR
07:44 8.8 °C -3.4 °C 1026.5 hPa SSW 10.3 km/h 13.0 km/h 42% 0.0 mm CLR
07:49 8.7 °C -3.2 °C 1026.6 hPa SSW 10.0 km/h 14.8 km/h 43% 0.0 mm CLR
07:54 8.7 °C -3.5 °C 1026.6 hPa SSW 10.0 km/h 14.8 km/h 42% 0.0 mm CLR
07:59 8.8 °C -3.4 °C 1026.6 hPa SSW 10.3 km/h 14.8 km/h 42% 0.0 mm CLR
08:04 8.9 °C -3.7 °C 1026.7 hPa South 10.3 km/h 16.7 km/h 41% 0.0 mm CLR
08:09 9.0 °C -3.6 °C 1026.7 hPa SSW 11.1 km/h 16.7 km/h 41% 0.0 mm CLR
08:14 9.2 °C -3.7 °C 1026.7 hPa SSW 11.1 km/h 16.7 km/h 40% 0.0 mm CLR
08:19 9.4 °C -3.9 °C 1026.8 hPa SW 11.1 km/h 20.4 km/h 39% 0.0 mm CLR
08:24 9.6 °C -4.1 °C 1026.8 hPa SW 11.1 km/h 13.0 km/h 38% 0.0 mm CLR
08:29 9.7 °C -3.9 °C 1026.8 hPa SSW 11.1 km/h 13.0 km/h 38% 0.0 mm CLR
08:34 9.8 °C -4.2 °C 1026.9 hPa SW 11.1 km/h 20.1 km/h 37% 0.0 mm CLR
08:39 9.9 °C -4.1 °C 1026.9 hPa SSW 12.2 km/h 14.8 km/h 37% 0.0 mm CLR
08:44 9.9 °C -4.1 °C 1026.9 hPa SSW 12.2 km/h 16.7 km/h 37% 0.0 mm CLR
08:49 9.9 °C -4.1 °C 1027.1 hPa South 10.0 km/h 11.1 km/h 37% 0.0 mm CLR
08:54 9.8 °C -3.9 °C 1027.1 hPa South 10.0 km/h 11.1 km/h 38% 0.0 mm CLR
08:59 9.8 °C -3.9 °C 1027.1 hPa SW 8.4 km/h 9.3 km/h 38% 0.0 mm CLR
09:04 9.8 °C -3.9 °C 1027.3 hPa West 8.4 km/h 7.4 km/h 38% 0.0 mm CLR
09:09 9.7 °C -3.6 °C 1027.3 hPa West 5.0 km/h 7.4 km/h 39% 0.0 mm CLR
09:14 9.6 °C -3.3 °C 1027.3 hPa WSW 5.0 km/h 7.4 km/h 40% 0.0 mm CLR
09:19 9.5 °C -3.1 °C 1027.4 hPa WSW 4.7 km/h 7.4 km/h 41% 0.0 mm CLR
09:24 9.4 °C -3.6 °C 1027.4 hPa SW 4.7 km/h 9.3 km/h 40% 0.0 mm CLR
09:29 9.6 °C -3.1 °C 1027.4 hPa SW 5.0 km/h 7.4 km/h 41% 0.0 mm CLR
09:34 9.6 °C -3.1 °C 1027.6 hPa SW 5.0 km/h   41% 0.0 mm CLR
09:39 9.6 °C -3.1 °C 1027.6 hPa SW 5.0 km/h   41% 0.0 mm CLR
09:44 10.3 °C -3.1 °C 1027.6 hPa South 2.3 km/h 8.7 km/h 39% 0.0 mm CLR
09:49 10.7 °C -3.4 °C 1027.8 hPa SSW 5.0 km/h 9.3 km/h 37% 0.0 mm CLR
09:54 10.7 °C -3.1 °C 1027.8 hPa SSW 5.0 km/h 9.3 km/h 38% 0.0 mm CLR
09:59 11.0 °C -3.2 °C 1027.8 hPa SSW 6.4 km/h 9.3 km/h 37% 0.0 mm CLR
10:04 11.2 °C -3.3 °C 1027.9 hPa SSW 6.4 km/h 7.6 km/h 36% 0.0 mm CLR
10:09 11.3 °C -3.3 °C 1027.9 hPa SW 6.4 km/h 9.3 km/h 36% 0.0 mm CLR
10:14 11.5 °C -3.1 °C 1027.9 hPa SW 6.4 km/h 11.1 km/h 36% 0.0 mm CLR
10:19 11.7 °C -3.3 °C 1027.9 hPa SW 6.4 km/h 9.3 km/h 35% 0.0 mm CLR
10:24 11.9 °C -3.5 °C 1027.9 hPa SW 6.4 km/h 11.1 km/h 34% 0.0 mm CLR
10:29 12.1 °C -3.3 °C 1027.9 hPa WSW 6.9 km/h 7.4 km/h 34% 0.0 mm CLR
10:34 12.2 °C -3.6 °C 1028.0 hPa SSW 6.9 km/h 9.3 km/h 33% 0.0 mm CLR
10:39 12.3 °C -3.6 °C 1028.0 hPa WSW 6.4 km/h 9.5 km/h 33% 0.0 mm CLR
10:44 12.4 °C -3.4 °C 1028.0 hPa WSW 6.4 km/h 11.1 km/h 33% 0.0 mm CLR
10:49 12.5 °C -3.3 °C 1028.0 hPa SW 6.4 km/h 7.4 km/h 33% 0.0 mm CLR
10:54 12.8 °C -3.1 °C 1028.0 hPa SW 6.9 km/h 9.3 km/h 33% 0.0 mm CLR
10:59 12.8 °C -3.5 °C 1028.0 hPa West 6.4 km/h 13.0 km/h 32% 0.0 mm CLR
11:04 12.9 °C -3.0 °C 1028.1 hPa WSW 6.4 km/h 13.0 km/h 33% 0.0 mm CLR
11:09 13.1 °C -2.8 °C 1028.1 hPa WSW 6.9 km/h 11.1 km/h 33% 0.0 mm CLR
11:14 13.1 °C -2.8 °C 1028.1 hPa SW 6.9 km/h 11.1 km/h 33% 0.0 mm CLR
11:19 13.2 °C -2.7 °C 1028.1 hPa WSW 7.6 km/h 13.0 km/h 33% 0.0 mm CLR
11:24 13.2 °C -2.3 °C 1028.1 hPa SW 7.6 km/h 11.1 km/h 34% 0.0 mm CLR
11:29 13.3 °C -2.7 °C 1028.1 hPa West 7.6 km/h 11.1 km/h 33% 0.0 mm CLR
11:34 13.3 °C -2.7 °C 1028.1 hPa WSW 7.6 km/h 9.5 km/h 33% 0.0 mm CLR
11:39 13.5 °C -2.5 °C 1028.1 hPa WSW 7.6 km/h 11.1 km/h 33% 0.0 mm CLR
11:44 13.6 °C -2.4 °C 1028.1 hPa SW 7.6 km/h 11.1 km/h 33% 0.0 mm CLR
11:49 13.8 °C -2.6 °C 1027.9 hPa SW 6.9 km/h 7.4 km/h 32% 0.0 mm CLR
11:54 13.9 °C -2.6 °C 1027.9 hPa WSW 6.9 km/h 14.8 km/h 32% 0.0 mm CLR
11:59 13.9 °C -2.6 °C 1027.9 hPa SW 7.6 km/h 11.1 km/h 32% 0.0 mm CLR
12:04 14.2 °C -2.7 °C 1027.5 hPa SW 7.6 km/h 11.1 km/h 31% 0.0 mm CLR
12:09 14.3 °C -2.6 °C 1027.5 hPa WNW 6.9 km/h 14.8 km/h 31% 0.0 mm CLR
12:14 14.5 °C -2.9 °C 1027.5 hPa WSW 6.9 km/h 10.0 km/h 30% 0.0 mm CLR
12:19 14.5 °C -2.9 °C 1027.5 hPa WSW 6.9 km/h 9.3 km/h 30% 0.0 mm CLR
12:24 14.8 °C -3.1 °C 1027.2 hPa SW 7.6 km/h 14.0 km/h 29% 0.0 mm CLR
12:29 14.8 °C -3.1 °C 1027.2 hPa SW 6.9 km/h 13.0 km/h 29% 0.0 mm CLR
12:34 14.9 °C -3.0 °C 1026.9 hPa WSW 6.9 km/h 15.6 km/h 29% 0.0 mm CLR
12:39 14.9 °C -3.0 °C 1026.9 hPa WSW 8.7 km/h 11.1 km/h 29% 0.0 mm CLR
12:44 15.0 °C -2.9 °C 1026.9 hPa SW 8.7 km/h 11.1 km/h 29% 0.0 mm CLR
12:49 15.2 °C -3.2 °C 1026.6 hPa SW 7.6 km/h 11.1 km/h 28% 0.0 mm CLR
12:54 15.2 °C -3.2 °C 1026.6 hPa West 7.6 km/h 11.1 km/h 28% 0.0 mm CLR
12:59 15.4 °C -3.1 °C 1026.6 hPa WSW 8.4 km/h 11.1 km/h 28% 0.0 mm CLR
13:04 15.6 °C -2.4 °C 1026.4 hPa WSW 8.4 km/h 14.8 km/h 29% 0.0 mm CLR
13:09 15.7 °C -2.8 °C 1026.4 hPa WSW 8.4 km/h 11.1 km/h 28% 0.0 mm CLR
13:14 15.7 °C -2.8 °C 1026.4 hPa SSW 8.4 km/h 9.3 km/h 28% 0.0 mm CLR
13:19 15.8 °C -2.7 °C 1026.3 hPa WSW 7.6 km/h 11.1 km/h 28% 0.0 mm CLR
13:24 16.0 °C -3.0 °C 1026.3 hPa South 7.6 km/h 9.3 km/h 27% 0.0 mm CLR
13:29 16.2 °C -2.8 °C 1026.3 hPa South 6.4 km/h 7.4 km/h 27% 0.0 mm CLR
13:34 16.2 °C -2.8 °C 1026.1 hPa WSW 6.4 km/h 13.0 km/h 27% 0.0 mm CLR
13:39 16.2 °C -3.3 °C 1026.1 hPa WSW 6.4 km/h 11.1 km/h 26% 0.0 mm CLR
13:44 16.3 °C -3.3 °C 1026.1 hPa WSW 6.4 km/h 5.8 km/h 26% 0.0 mm CLR
13:49 16.4 °C -3.2 °C 1025.9 hPa West 5.8 km/h 7.4 km/h 26% 0.0 mm CLR
13:54 16.5 °C -3.1 °C 1025.9 hPa West 5.8 km/h 9.3 km/h 26% 0.0 mm CLR
13:59 16.6 °C -3.6 °C 1025.9 hPa SSE 5.8 km/h 13.0 km/h 25% 0.0 mm CLR
14:04 16.8 °C -3.4 °C 1025.7 hPa SSE 5.8 km/h 7.6 km/h 25% 0.0 mm CLR
14:09 17.0 °C -3.2 °C 1025.7 hPa SSW 5.8 km/h 7.4 km/h 25% 0.0 mm CLR
14:14 17.1 °C -3.1 °C 1025.7 hPa SSW 5.8 km/h 11.1 km/h 25% 0.0 mm CLR
14:19 17.3 °C -3.5 °C 1025.5 hPa SSE 4.7 km/h 10.0 km/h 24% 0.0 mm CLR
14:24 17.2 °C -3.0 °C 1025.5 hPa South 4.7 km/h 8.7 km/h 25% 0.0 mm CLR
14:29 17.2 °C -3.0 °C 1025.5 hPa SSW 6.9 km/h 8.7 km/h 25% 0.0 mm CLR
14:34 17.3 °C -2.9 °C 1025.3 hPa SW 6.9 km/h 9.3 km/h 25% 0.0 mm CLR
14:39 17.4 °C -2.8 °C 1025.3 hPa SW 5.8 km/h 3.9 km/h 25% 0.0 mm CLR
14:44 17.6 °C -3.2 °C 1025.3 hPa SW 5.8 km/h 6.4 km/h 24% 0.0 mm CLR
14:49 17.6 °C -3.2 °C 1025.4 hPa West 3.2 km/h 5.6 km/h 24% 0.0 mm CLR
14:54 17.7 °C -3.7 °C 1025.4 hPa SSW 3.2 km/h 5.6 km/h 23% 0.0 mm CLR
14:59 17.9 °C -3.0 °C 1025.4 hPa ESE 3.2 km/h 5.6 km/h 24% 0.0 mm CLR
15:04 17.9 °C -3.0 °C 1025.2 hPa SSW 3.2 km/h 7.4 km/h 24% 0.0 mm CLR
15:09 18.0 °C -3.4 °C 1025.2 hPa SW 4.7 km/h 7.4 km/h 23% 0.0 mm CLR
15:14 18.0 °C -2.9 °C 1025.2 hPa SSW 4.7 km/h 6.4 km/h 24% 0.0 mm CLR
15:19 18.1 °C -3.4 °C 1025.2 hPa South 4.7 km/h 6.4 km/h 23% 0.0 mm CLR
15:24 18.1 °C -3.4 °C 1025.2 hPa SSE 4.7 km/h 7.4 km/h 23% 0.0 mm CLR
15:29 18.1 °C -3.4 °C 1025.2 hPa SSE 4.7 km/h 3.9 km/h 23% 0.0 mm CLR
15:34 18.2 °C -2.7 °C 1025.2 hPa SW 4.7 km/h 5.6 km/h 24% 0.0 mm CLR
15:39 18.2 °C -3.3 °C 1025.2 hPa SSW 4.7 km/h 5.8 km/h 23% 0.0 mm CLR
15:44 18.3 °C -3.2 °C 1025.2 hPa SSW 4.7 km/h 5.6 km/h 23% 0.0 mm CLR
15:49 18.3 °C -2.7 °C 1025.3 hPa SSW 3.9 km/h 3.7 km/h 24% 0.0 mm CLR
15:54 18.1 °C -3.4 °C 1025.3 hPa NNE 3.9 km/h 7.4 km/h 23% 0.0 mm CLR
15:59 18.1 °C -2.8 °C 1025.3 hPa NNE 3.9 km/h 3.2 km/h 24% 0.0 mm CLR
16:04 18.1 °C -3.4 °C 1025.2 hPa NNE 3.9 km/h   23% 0.0 mm CLR
16:09 18.2 °C -2.7 °C 1025.2 hPa Calm     24% 0.0 mm CLR
16:15 18.3 °C -3.2 °C 1025.2 hPa Calm   7.4 km/h 23% 0.0 mm CLR
16:19 18.2 °C -3.3 °C 1025.2 hPa ENE 2.9 km/h 3.9 km/h 23% 0.0 mm CLR
16:25 18.2 °C -3.3 °C 1025.2 hPa ENE 2.9 km/h 3.7 km/h 23% 0.0 mm CLR
16:29 18.2 °C -3.3 °C 1025.2 hPa ENE 2.9 km/h 4.7 km/h 23% 0.0 mm CLR
16:34 18.2 °C -2.7 °C 1025.1 hPa ENE 2.9 km/h 3.7 km/h 24% 0.0 mm CLR
16:39 18.2 °C -2.7 °C 1025.1 hPa NNE 2.3 km/h 7.4 km/h 24% 0.0 mm CLR
16:44 18.2 °C -2.7 °C 1025.1 hPa NNE 2.3 km/h 5.6 km/h 24% 0.0 mm CLR
16:49 18.2 °C -2.7 °C 1025.1 hPa NNE 3.2 km/h 3.7 km/h 24% 0.0 mm CLR
16:54 18.1 °C -2.8 °C 1025.1 hPa NNE 3.2 km/h 5.6 km/h 24% 0.0 mm CLR
16:59 18.1 °C -2.3 °C 1025.1 hPa NNE 2.3 km/h 5.6 km/h 25% 0.0 mm CLR
17:04 18.1 °C -2.8 °C 1025.0 hPa NNE 2.3 km/h 3.9 km/h 24% 0.0 mm CLR
17:09 18.1 °C -2.8 °C 1025.0 hPa NNE 2.9 km/h 3.7 km/h 24% 0.0 mm CLR
17:14 18.0 °C -2.9 °C 1025.0 hPa NNE 2.9 km/h   24% 0.0 mm CLR
17:19 18.0 °C -2.9 °C 1025.1 hPa Calm   5.6 km/h 24% 0.0 mm CLR
17:24 17.9 °C -3.0 °C 1025.1 hPa Calm   3.9 km/h 24% 0.0 mm CLR
17:29 17.8 °C -2.5 °C 1025.1 hPa NNE 3.2 km/h 3.7 km/h 25% 0.0 mm CLR
17:34 17.8 °C -2.5 °C 1025.0 hPa NNE 3.2 km/h 3.7 km/h 25% 0.0 mm CLR
17:39 17.7 °C -2.1 °C 1025.0 hPa NNE 2.9 km/h 3.9 km/h 26% 0.0 mm CLR
17:44 17.6 °C -1.7 °C 1025.0 hPa SSE 2.9 km/h 7.4 km/h 27% 0.0 mm CLR
17:49 17.4 °C -1.3 °C 1025.0 hPa South 4.7 km/h 5.6 km/h 28% 0.0 mm CLR
17:54 17.2 °C -1.0 °C 1025.0 hPa South 4.7 km/h 5.8 km/h 29% 0.0 mm CLR
17:59 16.9 °C -0.8 °C 1025.0 hPa South 4.7 km/h 7.4 km/h 30% 0.0 mm CLR
18:04 16.7 °C -0.6 °C 1025.2 hPa South 4.7 km/h 7.4 km/h 31% 0.0 mm CLR
18:09 16.4 °C -0.3 °C 1025.2 hPa SSE 5.0 km/h 7.4 km/h 32% 0.0 mm CLR
18:14 16.1 °C -0.2 °C 1025.2 hPa SSE 5.0 km/h 7.4 km/h 33% 0.0 mm CLR
18:19 15.8 °C -0.1 °C 1025.3 hPa SE 5.8 km/h 7.4 km/h 34% 0.0 mm CLR
18:24 15.4 °C 0.0 °C 1025.3 hPa SE 5.8 km/h 5.6 km/h 35% 0.0 mm CLR
18:29 15.0 °C 0.1 °C 1025.3 hPa SE 5.0 km/h 7.4 km/h 36% 0.0 mm CLR
18:34 14.6 °C 0.1 °C 1025.3 hPa SE 5.0 km/h 7.4 km/h 37% 0.0 mm CLR
18:39 14.3 °C -0.2 °C 1025.3 hPa SE 5.8 km/h 7.4 km/h 37% 0.0 mm CLR
18:44 14.1 °C 0.0 °C 1025.3 hPa SE 5.8 km/h 6.4 km/h 38% 0.0 mm CLR
18:49 13.8 °C -0.3 °C 1025.3 hPa SE 5.0 km/h 5.6 km/h 38% 0.0 mm CLR
18:54 13.6 °C -0.4 °C 1025.3 hPa SE 5.0 km/h 7.4 km/h 38% 0.0 mm CLR
18:59 13.4 °C -0.3 °C 1025.3 hPa South 4.7 km/h 6.4 km/h 39% 0.0 mm CLR
19:04 13.2 °C -0.4 °C 1025.3 hPa South 4.7 km/h 6.4 km/h 39% 0.0 mm CLR
19:09 13.1 °C -0.6 °C 1025.3 hPa South 4.7 km/h 3.9 km/h 39% 0.0 mm CLR
19:14 13.1 °C -0.6 °C 1025.3 hPa South 4.7 km/h 3.7 km/h 39% 0.0 mm CLR
19:19 13.1 °C -0.6 °C 1025.3 hPa South 3.2 km/h 3.7 km/h 39% 0.0 mm CLR
19:24 13.1 °C -0.2 °C 1025.3 hPa South 3.2 km/h 3.9 km/h 40% 0.0 mm CLR
19:29 12.9 °C -0.1 °C 1025.3 hPa SW 3.2 km/h 7.4 km/h 41% 0.0 mm CLR
19:34 12.6 °C 0.0 °C 1025.3 hPa SW 3.2 km/h 3.7 km/h 42% 0.0 mm CLR
19:39 12.3 °C 0.1 °C 1025.3 hPa WSW 3.9 km/h 7.4 km/h 43% 0.0 mm CLR
19:44 12.1 °C 0.2 °C 1025.3 hPa WNW 3.9 km/h 7.4 km/h 44% 0.0 mm CLR
19:49 11.9 °C 0.0 °C 1025.4 hPa WNW 5.0 km/h 7.4 km/h 44% 0.0 mm CLR
19:54 11.7 °C -0.2 °C 1025.4 hPa WNW 5.0 km/h 5.6 km/h 44% 0.0 mm CLR
19:59 11.7 °C -0.2 °C 1025.4 hPa WNW 3.9 km/h 5.6 km/h 44% 0.0 mm CLR
20:04 11.8 °C -0.1 °C 1025.5 hPa West 3.9 km/h 7.4 km/h 44% 0.0 mm CLR
20:09 11.9 °C -0.3 °C 1025.5 hPa SW 5.0 km/h 8.4 km/h 43% 0.0 mm CLR
20:14 11.9 °C 0.0 °C 1025.5 hPa SW 5.0 km/h 5.6 km/h 44% 0.0 mm CLR
20:19 11.9 °C -0.3 °C 1025.6 hPa SSW 5.0 km/h 6.9 km/h 43% 0.0 mm CLR
20:24 11.8 °C -0.7 °C 1025.6 hPa SW 5.0 km/h 13.0 km/h 42% 0.0 mm CLR
20:29 11.7 °C -0.8 °C 1025.6 hPa SSW 7.6 km/h 11.1 km/h 42% 0.0 mm CLR
20:35 11.7 °C -1.1 °C 1025.6 hPa SW 7.6 km/h 11.1 km/h 41% 0.0 mm CLR
20:39 11.7 °C -1.4 °C 1025.6 hPa SW 7.6 km/h 11.1 km/h 40% 0.0 mm CLR
20:44 11.8 °C -1.4 °C 1025.6 hPa SSW 7.6 km/h 5.6 km/h 40% 0.0 mm CLR
20:49 11.8 °C -1.1 °C 1025.6 hPa South 5.8 km/h 7.6 km/h 41% 0.0 mm CLR
20:54 11.6 °C -0.9 °C 1025.6 hPa SSE 5.8 km/h 11.1 km/h 42% 0.0 mm CLR
20:59 11.2 °C -0.6 °C 1025.6 hPa SE 6.9 km/h 7.4 km/h 44% 0.0 mm CLR
21:04 10.6 °C -0.3 °C 1025.7 hPa SSE 6.9 km/h 9.3 km/h 47% 0.0 mm CLR
21:09 10.0 °C -0.2 °C 1025.7 hPa South 6.9 km/h 9.3 km/h 49% 0.0 mm CLR
21:14 9.7 °C -0.2 °C 1025.7 hPa South 6.9 km/h 9.3 km/h 50% 0.0 mm CLR
21:19 9.5 °C -0.2 °C 1025.7 hPa South 6.4 km/h 7.4 km/h 51% 0.0 mm CLR
21:24 9.4 °C -0.2 °C 1025.7 hPa SSW 6.4 km/h 7.4 km/h 51% 0.0 mm CLR
21:29 9.4 °C -0.2 °C 1025.7 hPa SSW 4.7 km/h 5.6 km/h 51% 0.0 mm CLR
21:34 9.5 °C -0.2 °C 1025.8 hPa SSW 4.7 km/h 5.6 km/h 51% 0.0 mm CLR
21:39 9.4 °C 0.0 °C 1025.8 hPa SSE 3.9 km/h 7.4 km/h 52% 0.0 mm CLR
21:44 9.2 °C 0.1 °C 1025.8 hPa SSE 3.9 km/h 9.3 km/h 53% 0.0 mm CLR
21:49 8.9 °C 0.1 °C 1025.7 hPa South 6.4 km/h 9.3 km/h 54% 0.0 mm CLR
21:54 8.8 °C 0.2 °C 1025.7 hPa SSE 6.4 km/h 9.3 km/h 55% 0.0 mm CLR
21:59 8.7 °C 0.2 °C 1025.7 hPa SE 6.4 km/h 9.3 km/h 55% 0.0 mm CLR
22:04 8.7 °C 0.4 °C 1025.8 hPa SE 6.4 km/h 7.4 km/h 56% 0.0 mm CLR
22:09 8.5 °C 0.2 °C 1025.8 hPa SE 5.0 km/h 7.4 km/h 56% 0.0 mm CLR
22:14 8.4 °C 0.4 °C 1025.8 hPa SE 5.0 km/h 7.4 km/h 57% 0.0 mm CLR
22:19 8.3 °C 0.5 °C 1025.8 hPa SSE 5.8 km/h 9.5 km/h 58% 0.0 mm CLR
22:24 8.3 °C 0.3 °C 1025.8 hPa South 5.8 km/h 11.1 km/h 57% 0.0 mm CLR
22:29 8.4 °C 0.4 °C 1025.8 hPa SSW 6.9 km/h 11.1 km/h 57% 0.0 mm CLR
22:34 8.6 °C 0.6 °C 1025.9 hPa SSW 6.9 km/h 11.1 km/h 57% 0.0 mm CLR
22:39 8.7 °C 0.2 °C 1025.9 hPa SSW 7.6 km/h 9.3 km/h 55% 0.0 mm CLR
22:45 8.9 °C -0.2 °C 1025.9 hPa SSW 7.6 km/h 13.0 km/h 53% 0.0 mm CLR
22:49 9.1 °C -0.3 °C 1025.9 hPa SW 8.4 km/h 13.0 km/h 52% 0.0 mm CLR
22:54 9.2 °C -0.2 °C 1025.9 hPa SSW 8.4 km/h 13.0 km/h 52% 0.0 mm CLR
22:59 9.2 °C -0.2 °C 1025.9 hPa SW 8.7 km/h 9.3 km/h 52% 0.0 mm CLR
23:04 9.3 °C 0.2 °C 1025.9 hPa SW 8.7 km/h 7.4 km/h 53% 0.0 mm CLR
23:09 9.3 °C 0.2 °C 1025.9 hPa WSW 6.4 km/h 9.3 km/h 53% 0.0 mm CLR
23:14 9.3 °C 0.2 °C 1025.9 hPa WSW 6.4 km/h 7.4 km/h 53% 0.0 mm CLR
23:19 9.1 °C 0.0 °C 1025.9 hPa WSW 5.8 km/h 7.4 km/h 53% 0.0 mm CLR
23:24 8.9 °C 0.3 °C 1025.9 hPa SSW 5.8 km/h 7.4 km/h 55% 0.0 mm CLR
23:29 8.8 °C 0.2 °C 1025.9 hPa SSW 5.8 km/h 5.8 km/h 55% 0.0 mm CLR
23:34 8.8 °C 0.5 °C 1026.0 hPa SSW 5.8 km/h 7.4 km/h 56% 0.0 mm CLR
23:39 8.8 °C 0.5 °C 1026.0 hPa SSW 4.7 km/h 5.6 km/h 56% 0.0 mm CLR
23:44 8.8 °C 0.7 °C 1026.0 hPa SSW 4.7 km/h 5.0 km/h 57% 0.0 mm CLR
23:49 8.6 °C 0.8 °C 1025.9 hPa SSW 3.2 km/h   58% 0.0 mm CLR
23:54 8.4 °C 0.8 °C 1025.9 hPa South 3.2 km/h 5.6 km/h 59% 0.0 mm CLR
23:59 8.1 °C 0.8 °C 1025.9 hPa SSE 3.2 km/h 7.4 km/h 60% 0.0 mm CLR
Murcia-Puente Tocinos, España
Compliments of Weather Underground - 2.75 mb

La estación de MeteoMurcia.com, publica sus datos en los siguientes proyectos:

Weather Underground PWS IMURCIAP2 Meteoclimatic www.awekas.at

W3Counter
Web Analytics